Puffy — 9HA2011 — position and weather

sailwx.info

Track history (hours):
 
Tides and Currents Weather Stations Pressure Air Temp Water Temp Dewpoint Dewpoint Depression Visibility Wind Speed Wind Dir Waves Ship Positions

Puffy

Last reported at 2017-Nov-25 19:51 UTC. Time now 2017-Dec-18 14:54 UTC.
Position N 35°59' E 000°03'.
Warning: this ship's position is 22 days out of date.

Length 140 m; draft 7.5 m.

Type: Cargo ship. MMSI: 249801000.

Date/timePositionNaut miles runAvg speedWind from/ knotsBaromVisibWave heightAir tempDewpointWater temp
2017-Nov-25 19:51N 35°59' E 000°03'0 0.0
2017-Nov-25 19:27N 35°59' E 000°03'0 0.0
2017-Nov-25 18:51N 35°59' E 000°03'0 0.0
2017-Nov-25 18:22N 35°59' E 000°03'0 0.0
2017-Nov-25 16:27N 35°59' E 000°03'0 0.0
2017-Nov-25 11:09N 35°59' E 000°03'33 3.1
2017-Nov-25 00:37N 36°27' E 000°26'1 9.3
2017-Nov-25 00:28N 36°28' E 000°28'39 9.7
2017-Nov-24 20:28N 36°41' E 001°13'2210.3
2017-Nov-24 18:22N 36°47' E 001°39'4 9.6
2017-Nov-24 18:00N 36°49' E 001°43'5 9.1
2017-Nov-24 17:30N 36°50' E 001°48'5 9.5
2017-Nov-24 17:00N 36°51' E 001°54'5 9.5
2017-Nov-24 16:30N 36°53' E 001°60'5 9.9
2017-Nov-24 16:00N 36°54' E 002°06'510.0
2017-Nov-24 15:30N 36°56' E 002°11'510.1
2017-Nov-24 15:00N 36°57' E 002°18'510.1
2017-Nov-24 14:30N 36°58' E 002°24'510.1
2017-Nov-24 13:59N 36°59' E 002°30'5 9.9
2017-Nov-24 13:30N 36°59' E 002°36'510.1
2017-Nov-24 13:00N 37°00' E 002°42'510.0
2017-Nov-24 12:30N 37°01' E 002°49'5 9.8
2017-Nov-24 12:00N 37°02' E 002°55'5 9.3
2017-Nov-24 11:30N 37°02' E 003°01'5 9.4
2017-Nov-24 11:00N 37°03' E 003°06'5 9.4
2017-Nov-24 10:30N 37°04' E 003°12'5 9.4
2017-Nov-24 10:00N 37°05' E 003°18'5 9.5
2017-Nov-24 09:30N 37°05' E 003°24'5 9.5
2017-Nov-24 09:00N 37°06' E 003°30'5 9.5
2017-Nov-24 08:30N 37°07' E 003°35'5 9.2
2017-Nov-24 08:00N 37°08' E 003°41'5 9.3
2017-Nov-24 07:30N 37°08' E 003°47'5 9.2
2017-Nov-24 07:00N 37°09' E 003°53'6 9.2
2017-Nov-24 06:21N 37°10' E 004°00'7 9.5
2017-Nov-24 05:36N 37°10' E 004°09'  
2017-Nov-18 11:30N 40°53' E 028°32'20 2.2
2017-Nov-18 02:18N 40°58' E 028°57'1 2.9
2017-Nov-18 02:00N 40°58' E 028°58'327 7.5
2017-Nov-16 06:33N 46°15' E 030°54'110.9
2017-Nov-16 06:27N 46°16' E 030°54'610.7
2017-Nov-16 05:56N 46°22' E 030°55'510.9
2017-Nov-16 05:30N 46°26' E 030°55'510.7
2017-Nov-16 05:00N 46°31' E 030°55'5 8.4
2017-Nov-16 04:28N 46°34' E 031°00'  
Track history (hours):
 
Tides and Currents Weather Stations Pressure Air Temp Water Temp Dewpoint Dewpoint Depression Visibility Wind Speed Wind Dir Waves Ship Positions

Puffy

Last reported at 2017-Nov-25 19:51 UTC. Time now 2017-Dec-18 14:54 UTC.
Position N 35°59' E 000°03'.
Warning: this ship's position is 22 days out of date.

Length 140 m; draft 7.5 m.

Type: Cargo ship. MMSI: 249801000.

Date/timePositionNaut miles runAvg speedWind from/ knotsBaromVisibWave heightAir tempDewpointWater temp
2017-Nov-25 19:51N 35°59' E 000°03'0 0.0
2017-Nov-25 19:27N 35°59' E 000°03'0 0.0
2017-Nov-25 18:51N 35°59' E 000°03'0 0.0
2017-Nov-25 18:22N 35°59' E 000°03'0 0.0
2017-Nov-25 16:27N 35°59' E 000°03'0 0.0
2017-Nov-25 11:09N 35°59' E 000°03'33 3.1
2017-Nov-25 00:37N 36°27' E 000°26'1 9.3
2017-Nov-25 00:28N 36°28' E 000°28'39 9.7
2017-Nov-24 20:28N 36°41' E 001°13'2210.3
2017-Nov-24 18:22N 36°47' E 001°39'4 9.6
2017-Nov-24 18:00N 36°49' E 001°43'5 9.1
2017-Nov-24 17:30N 36°50' E 001°48'5 9.5
2017-Nov-24 17:00N 36°51' E 001°54'5 9.5
2017-Nov-24 16:30N 36°53' E 001°60'5 9.9
2017-Nov-24 16:00N 36°54' E 002°06'510.0
2017-Nov-24 15:30N 36°56' E 002°11'510.1
2017-Nov-24 15:00N 36°57' E 002°18'510.1
2017-Nov-24 14:30N 36°58' E 002°24'510.1
2017-Nov-24 13:59N 36°59' E 002°30'5 9.9
2017-Nov-24 13:30N 36°59' E 002°36'510.1
2017-Nov-24 13:00N 37°00' E 002°42'510.0
2017-Nov-24 12:30N 37°01' E 002°49'5 9.8
2017-Nov-24 12:00N 37°02' E 002°55'5 9.3
2017-Nov-24 11:30N 37°02' E 003°01'5 9.4
2017-Nov-24 11:00N 37°03' E 003°06'5 9.4
2017-Nov-24 10:30N 37°04' E 003°12'5 9.4
2017-Nov-24 10:00N 37°05' E 003°18'5 9.5
2017-Nov-24 09:30N 37°05' E 003°24'5 9.5
2017-Nov-24 09:00N 37°06' E 003°30'5 9.5
2017-Nov-24 08:30N 37°07' E 003°35'5 9.2
2017-Nov-24 08:00N 37°08' E 003°41'5 9.3
2017-Nov-24 07:30N 37°08' E 003°47'5 9.2
2017-Nov-24 07:00N 37°09' E 003°53'6 9.2
2017-Nov-24 06:21N 37°10' E 004°00'7 9.5
2017-Nov-24 05:36N 37°10' E 004°09'  
2017-Nov-18 11:30N 40°53' E 028°32'20 2.2
2017-Nov-18 02:18N 40°58' E 028°57'1 2.9
2017-Nov-18 02:00N 40°58' E 028°58'327 7.5
2017-Nov-16 06:33N 46°15' E 030°54'110.9
2017-Nov-16 06:27N 46°16' E 030°54'610.7
2017-Nov-16 05:56N 46°22' E 030°55'510.9
2017-Nov-16 05:30N 46°26' E 030°55'510.7
2017-Nov-16 05:00N 46°31' E 030°55'5 8.4
2017-Nov-16 04:28N 46°34' E 031°00'  

Dump ship's entire track history